sensor_id;sensor_type;location;lat;lon;timestamp;temperature;humidity
54264;DHT22;40178;53.042;6.406;2023-02-28T00:00:21;2.20;99.90
54264;DHT22;40178;53.042;6.406;2023-02-28T00:02:47;2.80;99.90
54264;DHT22;40178;53.042;6.406;2023-02-28T00:05:15;2.80;99.90
54264;DHT22;40178;53.042;6.406;2023-02-28T00:07:42;2.80;99.90
54264;DHT22;40178;53.042;6.406;2023-02-28T00:10:10;2.80;99.90
54264;DHT22;40178;53.042;6.406;2023-02-28T00:12:37;2.80;99.90
54264;DHT22;40178;53.042;6.406;2023-02-28T00:15:06;2.80;99.90
54264;DHT22;40178;53.042;6.406;2023-02-28T00:17:32;2.80;99.90
54264;DHT22;40178;53.042;6.406;2023-02-28T00:19:58;2.70;99.90
54264;DHT22;40178;53.042;6.406;2023-02-28T00:22:38;2.80;99.90
54264;DHT22;40178;53.042;6.406;2023-02-28T00:25:05;2.80;99.90
54264;DHT22;40178;53.042;6.406;2023-02-28T00:27:32;2.70;99.90
54264;DHT22;40178;53.042;6.406;2023-02-28T00:29:58;2.80;99.90
54264;DHT22;40178;53.042;6.406;2023-02-28T00:32:24;2.80;99.90
54264;DHT22;40178;53.042;6.406;2023-02-28T00:34:49;2.80;99.90
54264;DHT22;40178;53.042;6.406;2023-02-28T00:37:15;2.80;99.90
54264;DHT22;40178;53.042;6.406;2023-02-28T00:39:40;2.70;99.90
54264;DHT22;40178;53.042;6.406;2023-02-28T00:42:07;2.80;99.90
54264;DHT22;40178;53.042;6.406;2023-02-28T00:44:33;2.70;99.90
54264;DHT22;40178;53.042;6.406;2023-02-28T00:46:59;2.80;99.90
54264;DHT22;40178;53.042;6.406;2023-02-28T00:49:26;2.70;99.90
54264;DHT22;40178;53.042;6.406;2023-02-28T00:51:53;2.80;99.90
54264;DHT22;40178;53.042;6.406;2023-02-28T00:54:19;2.70;99.90
54264;DHT22;40178;53.042;6.406;2023-02-28T00:56:45;2.70;99.90
54264;DHT22;40178;53.042;6.406;2023-02-28T00:59:12;2.70;99.90
54264;DHT22;40178;53.042;6.406;2023-02-28T01:01:39;2.70;99.90
54264;DHT22;40178;53.042;6.406;2023-02-28T01:04:04;2.80;99.90
54264;DHT22;40178;53.042;6.406;2023-02-28T01:06:30;2.80;99.90
54264;DHT22;40178;53.042;6.406;2023-02-28T01:08:57;2.70;99.90
54264;DHT22;40178;53.042;6.406;2023-02-28T01:11:23;2.70;99.90
54264;DHT22;40178;53.042;6.406;2023-02-28T01:13:48;2.80;99.90
54264;DHT22;40178;53.042;6.406;2023-02-28T01:16:14;2.70;99.90
54264;DHT22;40178;53.042;6.406;2023-02-28T01:18:40;2.70;99.90
54264;DHT22;40178;53.042;6.406;2023-02-28T01:21:12;2.70;99.90
54264;DHT22;40178;53.042;6.406;2023-02-28T01:23:38;2.70;99.90
54264;DHT22;40178;53.042;6.406;2023-02-28T01:26:15;2.70;99.90
54264;DHT22;40178;53.042;6.406;2023-02-28T01:28:41;2.80;99.90
54264;DHT22;40178;53.042;6.406;2023-02-28T01:31:08;2.80;99.90
54264;DHT22;40178;53.042;6.406;2023-02-28T01:33:34;2.80;99.90
54264;DHT22;40178;53.042;6.406;2023-02-28T01:36:14;2.80;99.90
54264;DHT22;40178;53.042;6.406;2023-02-28T01:38:40;2.80;99.90
54264;DHT22;40178;53.042;6.406;2023-02-28T01:41:07;2.80;99.90
54264;DHT22;40178;53.042;6.406;2023-02-28T01:44:04;2.80;99.90
54264;DHT22;40178;53.042;6.406;2023-02-28T01:46:32;2.70;99.90
54264;DHT22;40178;53.042;6.406;2023-02-28T01:49:06;2.80;99.90
54264;DHT22;40178;53.042;6.406;2023-02-28T01:51:44;2.80;99.90
54264;DHT22;40178;53.042;6.406;2023-02-28T01:54:15;2.80;99.90
54264;DHT22;40178;53.042;6.406;2023-02-28T01:56:46;2.80;99.90
54264;DHT22;40178;53.042;6.406;2023-02-28T01:59:17;2.70;99.90
54264;DHT22;40178;53.042;6.406;2023-02-28T02:01:46;2.70;99.90
54264;DHT22;40178;53.042;6.406;2023-02-28T02:04:12;2.70;99.90
54264;DHT22;40178;53.042;6.406;2023-02-28T02:06:42;2.70;99.90
54264;DHT22;40178;53.042;6.406;2023-02-28T02:09:08;2.80;99.90
54264;DHT22;40178;53.042;6.406;2023-02-28T02:11:34;2.80;99.90
54264;DHT22;40178;53.042;6.406;2023-02-28T02:17:05;2.80;99.90
54264;DHT22;40178;53.042;6.406;2023-02-28T02:25:39;2.90;99.90
54264;DHT22;40178;53.042;6.406;2023-02-28T02:36:42;2.80;99.90
54264;DHT22;40178;53.042;6.406;2023-02-28T02:42:01;2.90;99.90
54264;DHT22;40178;53.042;6.406;2023-02-28T02:44:39;2.80;99.90
54264;DHT22;40178;53.042;6.406;2023-02-28T02:47:18;2.80;99.90
54264;DHT22;40178;53.042;6.406;2023-02-28T02:49:54;2.90;99.90
54264;DHT22;40178;53.042;6.406;2023-02-28T02:52:24;2.90;99.90
54264;DHT22;40178;53.042;6.406;2023-02-28T02:54:55;2.90;99.90
54264;DHT22;40178;53.042;6.406;2023-02-28T02:57:45;2.90;99.90
54264;DHT22;40178;53.042;6.406;2023-02-28T03:00:12;2.90;99.90
54264;DHT22;40178;53.042;6.406;2023-02-28T03:02:40;3.00;99.90
54264;DHT22;40178;53.042;6.406;2023-02-28T03:05:13;2.90;99.90
54264;DHT22;40178;53.042;6.406;2023-02-28T03:07:40;2.90;99.90
54264;DHT22;40178;53.042;6.406;2023-02-28T03:10:27;2.90;99.90
54264;DHT22;40178;53.042;6.406;2023-02-28T03:13:07;2.90;99.90
54264;DHT22;40178;53.042;6.406;2023-02-28T03:18:31;2.90;99.90
54264;DHT22;40178;53.042;6.406;2023-02-28T03:21:20;2.90;99.90
54264;DHT22;40178;53.042;6.406;2023-02-28T03:24:03;2.90;99.90
54264;DHT22;40178;53.042;6.406;2023-02-28T03:26:31;2.90;99.90
54264;DHT22;40178;53.042;6.406;2023-02-28T03:29:13;3.00;99.90
54264;DHT22;40178;53.042;6.406;2023-02-28T03:31:58;3.00;99.90
54264;DHT22;40178;53.042;6.406;2023-02-28T03:34:38;3.00;99.90
54264;DHT22;40178;53.042;6.406;2023-02-28T03:37:14;2.90;99.90
54264;DHT22;40178;53.042;6.406;2023-02-28T03:39:47;2.90;99.90
54264;DHT22;40178;53.042;6.406;2023-02-28T03:42:20;2.90;99.90
54264;DHT22;40178;53.042;6.406;2023-02-28T03:45:10;2.90;99.90
54264;DHT22;40178;53.042;6.406;2023-02-28T03:47:45;2.90;99.90
54264;DHT22;40178;53.042;6.406;2023-02-28T03:50:18;3.00;99.90
54264;DHT22;40178;53.042;6.406;2023-02-28T03:53:00;2.90;99.90
54264;DHT22;40178;53.042;6.406;2023-02-28T03:55:32;2.80;99.90
54264;DHT22;40178;53.042;6.406;2023-02-28T03:58:16;2.80;99.90
54264;DHT22;40178;53.042;6.406;2023-02-28T04:00:49;2.90;99.90
54264;DHT22;40178;53.042;6.406;2023-02-28T04:03:16;3.20;99.90
54264;DHT22;40178;53.042;6.406;2023-02-28T04:05:52;2.70;99.90
54264;DHT22;40178;53.042;6.406;2023-02-28T04:08:18;2.70;99.90
54264;DHT22;40178;53.042;6.406;2023-02-28T04:10:48;2.60;99.90
54264;DHT22;40178;53.042;6.406;2023-02-28T04:13:16;2.60;99.90
54264;DHT22;40178;53.042;6.406;2023-02-28T04:15:41;2.70;99.90
54264;DHT22;40178;53.042;6.406;2023-02-28T04:18:07;2.70;99.90
54264;DHT22;40178;53.042;6.406;2023-02-28T04:20:33;2.60;99.90
54264;DHT22;40178;53.042;6.406;2023-02-28T04:22:59;2.50;99.90
54264;DHT22;40178;53.042;6.406;2023-02-28T04:25:24;2.60;99.90
54264;DHT22;40178;53.042;6.406;2023-02-28T04:27:50;2.60;99.90
54264;DHT22;40178;53.042;6.406;2023-02-28T04:30:16;2.60;99.90
54264;DHT22;40178;53.042;6.406;2023-02-28T04:32:41;2.50;99.90
54264;DHT22;40178;53.042;6.406;2023-02-28T04:35:07;2.40;99.90
54264;DHT22;40178;53.042;6.406;2023-02-28T04:37:33;2.40;99.90
54264;DHT22;40178;53.042;6.406;2023-02-28T04:40:00;2.40;99.90
54264;DHT22;40178;53.042;6.406;2023-02-28T04:42:26;2.50;99.90
54264;DHT22;40178;53.042;6.406;2023-02-28T04:44:52;2.50;99.90
54264;DHT22;40178;53.042;6.406;2023-02-28T04:47:17;2.40;99.90
54264;DHT22;40178;53.042;6.406;2023-02-28T04:49:43;2.40;99.90
54264;DHT22;40178;53.042;6.406;2023-02-28T04:52:08;2.30;99.90
54264;DHT22;40178;53.042;6.406;2023-02-28T04:54:35;2.40;99.90
54264;DHT22;40178;53.042;6.406;2023-02-28T04:57:01;2.50;99.90
54264;DHT22;40178;53.042;6.406;2023-02-28T04:59:27;2.40;99.90
54264;DHT22;40178;53.042;6.406;2023-02-28T05:01:52;2.40;99.90
54264;DHT22;40178;53.042;6.406;2023-02-28T05:04:18;2.40;99.90
54264;DHT22;40178;53.042;6.406;2023-02-28T05:06:44;2.40;99.90
54264;DHT22;40178;53.042;6.406;2023-02-28T05:09:10;2.40;99.90
54264;DHT22;40178;53.042;6.406;2023-02-28T05:11:39;2.40;99.90
54264;DHT22;40178;53.042;6.406;2023-02-28T05:14:09;2.20;99.90
54264;DHT22;40178;53.042;6.406;2023-02-28T05:16:35;2.30;99.90
54264;DHT22;40178;53.042;6.406;2023-02-28T05:19:00;2.40;99.90
54264;DHT22;40178;53.042;6.406;2023-02-28T05:21:35;2.40;99.90
54264;DHT22;40178;53.042;6.406;2023-02-28T05:24:08;2.40;99.90
54264;DHT22;40178;53.042;6.406;2023-02-28T05:26:36;2.40;99.90
54264;DHT22;40178;53.042;6.406;2023-02-28T05:29:02;2.30;99.90
54264;DHT22;40178;53.042;6.406;2023-02-28T05:31:28;2.30;99.90
54264;DHT22;40178;53.042;6.406;2023-02-28T05:33:53;2.30;99.90
54264;DHT22;40178;53.042;6.406;2023-02-28T05:36:20;2.40;99.90
54264;DHT22;40178;53.042;6.406;2023-02-28T05:38:47;2.30;99.90
54264;DHT22;40178;53.042;6.406;2023-02-28T05:41:13;2.30;99.90
54264;DHT22;40178;53.042;6.406;2023-02-28T05:43:39;2.40;99.90
54264;DHT22;40178;53.042;6.406;2023-02-28T05:46:05;2.40;99.90
54264;DHT22;40178;53.042;6.406;2023-02-28T05:48:33;2.30;99.90
54264;DHT22;40178;53.042;6.406;2023-02-28T05:50:58;2.20;99.90
54264;DHT22;40178;53.042;6.406;2023-02-28T05:53:24;2.30;99.90
54264;DHT22;40178;53.042;6.406;2023-02-28T05:55:49;2.20;99.90
54264;DHT22;40178;53.042;6.406;2023-02-28T05:58:15;2.10;99.90
54264;DHT22;40178;53.042;6.406;2023-02-28T06:00:41;2.10;99.90
54264;DHT22;40178;53.042;6.406;2023-02-28T06:03:06;2.10;99.90
54264;DHT22;40178;53.042;6.406;2023-02-28T06:05:32;2.10;99.90
54264;DHT22;40178;53.042;6.406;2023-02-28T06:07:58;2.20;99.90
54264;DHT22;40178;53.042;6.406;2023-02-28T06:10:24;2.10;99.90
54264;DHT22;40178;53.042;6.406;2023-02-28T06:12:49;2.00;99.90
54264;DHT22;40178;53.042;6.406;2023-02-28T06:15:15;1.90;99.90
54264;DHT22;40178;53.042;6.406;2023-02-28T06:17:42;2.10;99.90
54264;DHT22;40178;53.042;6.406;2023-02-28T06:20:09;2.00;99.90
54264;DHT22;40178;53.042;6.406;2023-02-28T06:22:38;2.00;99.90
54264;DHT22;40178;53.042;6.406;2023-02-28T06:25:04;1.90;99.90
54264;DHT22;40178;53.042;6.406;2023-02-28T06:27:31;1.90;99.90
54264;DHT22;40178;53.042;6.406;2023-02-28T06:29:57;1.90;99.90
54264;DHT22;40178;53.042;6.406;2023-02-28T06:32:23;1.90;99.90
54264;DHT22;40178;53.042;6.406;2023-02-28T06:34:48;1.80;99.90
54264;DHT22;40178;53.042;6.406;2023-02-28T06:37:14;1.80;99.90
54264;DHT22;40178;53.042;6.406;2023-02-28T06:39:39;1.70;99.90
54264;DHT22;40178;53.042;6.406;2023-02-28T06:42:05;1.80;99.90
54264;DHT22;40178;53.042;6.406;2023-02-28T06:44:31;1.80;99.90
54264;DHT22;40178;53.042;6.406;2023-02-28T06:47:01;1.80;99.90
54264;DHT22;40178;53.042;6.406;2023-02-28T06:49:34;1.70;99.90
54264;DHT22;40178;53.042;6.406;2023-02-28T06:52:00;1.80;99.90
54264;DHT22;40178;53.042;6.406;2023-02-28T06:54:26;1.80;99.90
54264;DHT22;40178;53.042;6.406;2023-02-28T06:56:52;1.80;99.90
54264;DHT22;40178;53.042;6.406;2023-02-28T06:59:20;1.80;99.90
54264;DHT22;40178;53.042;6.406;2023-02-28T07:01:45;1.80;99.90
54264;DHT22;40178;53.042;6.406;2023-02-28T07:04:11;1.70;99.90
54264;DHT22;40178;53.042;6.406;2023-02-28T07:06:38;1.80;99.90
54264;DHT22;40178;53.042;6.406;2023-02-28T07:09:04;1.90;99.90
54264;DHT22;40178;53.042;6.406;2023-02-28T07:11:30;1.70;99.90
54264;DHT22;40178;53.042;6.406;2023-02-28T07:13:56;1.80;99.90
54264;DHT22;40178;53.042;6.406;2023-02-28T07:16:23;3.20;99.90
54264;DHT22;40178;53.042;6.406;2023-02-28T07:18:49;1.80;99.90
54264;DHT22;40178;53.042;6.406;2023-02-28T07:21:17;1.70;99.90
54264;DHT22;40178;53.042;6.406;2023-02-28T07:23:43;1.80;99.90
54264;DHT22;40178;53.042;6.406;2023-02-28T07:26:12;1.80;99.90
54264;DHT22;40178;53.042;6.406;2023-02-28T07:28:44;2.00;99.90
54264;DHT22;40178;53.042;6.406;2023-02-28T07:31:11;1.80;99.90
54264;DHT22;40178;53.042;6.406;2023-02-28T07:33:37;2.00;99.90
54264;DHT22;40178;53.042;6.406;2023-02-28T07:36:06;3.40;99.90
54264;DHT22;40178;53.042;6.406;2023-02-28T07:38:36;2.00;99.90
54264;DHT22;40178;53.042;6.406;2023-02-28T07:41:03;2.80;99.90
54264;DHT22;40178;53.042;6.406;2023-02-28T07:43:32;2.00;99.90
54264;DHT22;40178;53.042;6.406;2023-02-28T07:46:09;2.90;99.90
54264;DHT22;40178;53.042;6.406;2023-02-28T07:48:35;2.10;99.90
54264;DHT22;40178;53.042;6.406;2023-02-28T07:51:01;3.10;99.90
54264;DHT22;40178;53.042;6.406;2023-02-28T07:53:27;2.80;99.90
54264;DHT22;40178;53.042;6.406;2023-02-28T07:55:57;2.20;99.90
54264;DHT22;40178;53.042;6.406;2023-02-28T07:58:24;2.20;99.90
54264;DHT22;40178;53.042;6.406;2023-02-28T08:00:50;2.20;99.90
54264;DHT22;40178;53.042;6.406;2023-02-28T08:03:19;2.20;99.90
54264;DHT22;40178;53.042;6.406;2023-02-28T08:05:45;2.30;99.90
54264;DHT22;40178;53.042;6.406;2023-02-28T08:08:11;2.20;99.90
54264;DHT22;40178;53.042;6.406;2023-02-28T08:10:37;2.30;99.90
54264;DHT22;40178;53.042;6.406;2023-02-28T08:13:02;2.20;99.90
54264;DHT22;40178;53.042;6.406;2023-02-28T08:15:28;2.20;99.90
54264;DHT22;40178;53.042;6.406;2023-02-28T08:17:54;2.30;99.90
54264;DHT22;40178;53.042;6.406;2023-02-28T08:20:22;2.40;99.90
54264;DHT22;40178;53.042;6.406;2023-02-28T08:22:47;4.00;99.90
54264;DHT22;40178;53.042;6.406;2023-02-28T08:25:13;2.40;99.90
54264;DHT22;40178;53.042;6.406;2023-02-28T08:27:39;2.50;99.90
54264;DHT22;40178;53.042;6.406;2023-02-28T08:30:05;2.40;99.90
54264;DHT22;40178;53.042;6.406;2023-02-28T08:32:32;2.60;99.90
54264;DHT22;40178;53.042;6.406;2023-02-28T08:34:58;2.60;99.90
54264;DHT22;40178;53.042;6.406;2023-02-28T08:37:24;2.70;99.90
54264;DHT22;40178;53.042;6.406;2023-02-28T08:39:50;2.60;99.90
54264;DHT22;40178;53.042;6.406;2023-02-28T08:42:15;2.80;99.90
54264;DHT22;40178;53.042;6.406;2023-02-28T08:44:41;2.70;99.90
54264;DHT22;40178;53.042;6.406;2023-02-28T08:47:07;2.90;99.90
54264;DHT22;40178;53.042;6.406;2023-02-28T08:49:32;2.80;99.90
54264;DHT22;40178;53.042;6.406;2023-02-28T08:51:58;2.80;99.90
54264;DHT22;40178;53.042;6.406;2023-02-28T08:54:24;2.70;99.90
54264;DHT22;40178;53.042;6.406;2023-02-28T08:56:50;3.20;99.90
54264;DHT22;40178;53.042;6.406;2023-02-28T08:59:16;3.10;99.90
54264;DHT22;40178;53.042;6.406;2023-02-28T09:01:41;3.10;99.90
54264;DHT22;40178;53.042;6.406;2023-02-28T09:04:09;3.00;99.90
54264;DHT22;40178;53.042;6.406;2023-02-28T09:06:36;3.10;99.90
54264;DHT22;40178;53.042;6.406;2023-02-28T09:09:01;3.20;99.90
54264;DHT22;40178;53.042;6.406;2023-02-28T09:11:29;3.30;99.90
54264;DHT22;40178;53.042;6.406;2023-02-28T09:13:55;3.40;99.90
54264;DHT22;40178;53.042;6.406;2023-02-28T09:16:21;3.50;99.90
54264;DHT22;40178;53.042;6.406;2023-02-28T09:18:47;3.80;99.90
54264;DHT22;40178;53.042;6.406;2023-02-28T09:21:15;3.80;99.90
54264;DHT22;40178;53.042;6.406;2023-02-28T09:23:42;4.00;99.90
54264;DHT22;40178;53.042;6.406;2023-02-28T09:26:13;4.10;99.90
54264;DHT22;40178;53.042;6.406;2023-02-28T09:28:39;4.20;99.90
54264;DHT22;40178;53.042;6.406;2023-02-28T09:31:05;4.30;99.90
54264;DHT22;40178;53.042;6.406;2023-02-28T09:33:31;4.50;99.90
54264;DHT22;40178;53.042;6.406;2023-02-28T09:36:01;4.60;99.90
54264;DHT22;40178;53.042;6.406;2023-02-28T09:38:27;4.60;99.90
54264;DHT22;40178;53.042;6.406;2023-02-28T09:40:56;4.70;99.90
54264;DHT22;40178;53.042;6.406;2023-02-28T09:43:25;4.90;99.90
54264;DHT22;40178;53.042;6.406;2023-02-28T09:46:40;4.80;99.90
54264;DHT22;40178;53.042;6.406;2023-02-28T09:48:44;4.80;99.90
54264;DHT22;40178;53.042;6.406;2023-02-28T09:51:48;4.80;99.90
54264;DHT22;40178;53.042;6.406;2023-02-28T09:54:19;4.80;99.90
54264;DHT22;40178;53.042;6.406;2023-02-28T09:59:54;4.80;99.90
54264;DHT22;40178;53.042;6.406;2023-02-28T10:08:44;4.90;99.90
54264;DHT22;40178;53.042;6.406;2023-02-28T10:11:15;5.00;99.90
54264;DHT22;40178;53.042;6.406;2023-02-28T10:16:40;4.90;99.90
54264;DHT22;40178;53.042;6.406;2023-02-28T10:19:19;5.00;99.90
54264;DHT22;40178;53.042;6.406;2023-02-28T10:22:38;5.10;99.90
54264;DHT22;40178;53.042;6.406;2023-02-28T10:25:20;5.10;98.90
54264;DHT22;40178;53.042;6.406;2023-02-28T10:27:46;5.20;99.90
54264;DHT22;40178;53.042;6.406;2023-02-28T10:30:12;5.30;99.90
54264;DHT22;40178;53.042;6.406;2023-02-28T10:32:50;5.40;93.30
54264;DHT22;40178;53.042;6.406;2023-02-28T10:35:18;5.40;75.30
54264;DHT22;40178;53.042;6.406;2023-02-28T10:37:47;5.50;91.80
54264;DHT22;40178;53.042;6.406;2023-02-28T10:43:03;5.60;96.20
54264;DHT22;40178;53.042;6.406;2023-02-28T10:45:32;5.70;90.10
54264;DHT22;40178;53.042;6.406;2023-02-28T10:48:03;5.70;91.60
54264;DHT22;40178;53.042;6.406;2023-02-28T10:50:42;6.80;79.80
54264;DHT22;40178;53.042;6.406;2023-02-28T10:55:43;5.80;60.30
54264;DHT22;40178;53.042;6.406;2023-02-28T10:58:25;5.90;91.90
54264;DHT22;40178;53.042;6.406;2023-02-28T11:00:51;5.80;21.60
54264;DHT22;40178;53.042;6.406;2023-02-28T11:03:32;5.80;83.80
54264;DHT22;40178;53.042;6.406;2023-02-28T11:06:05;6.00;76.60
54264;DHT22;40178;53.042;6.406;2023-02-28T11:08:32;6.00;73.10
54264;DHT22;40178;53.042;6.406;2023-02-28T11:11:00;6.00;78.50
54264;DHT22;40178;53.042;6.406;2023-02-28T11:13:36;6.10;85.20
54264;DHT22;40178;53.042;6.406;2023-02-28T11:16:06;6.00;58.30
54264;DHT22;40178;53.042;6.406;2023-02-28T11:18:38;6.10;58.20
54264;DHT22;40178;53.042;6.406;2023-02-28T11:21:05;6.00;1.00
54264;DHT22;40178;53.042;6.406;2023-02-28T11:23:32;6.00;1.00
54264;DHT22;40178;53.042;6.406;2023-02-28T11:26:01;6.00;7.50
54264;DHT22;40178;53.042;6.406;2023-02-28T11:28:33;6.00;99.90
54264;DHT22;40178;53.042;6.406;2023-02-28T11:31:08;6.00;39.10
54264;DHT22;40178;53.042;6.406;2023-02-28T11:33:51;5.90;99.90
54264;DHT22;40178;53.042;6.406;2023-02-28T11:36:26;6.00;99.90
54264;DHT22;40178;53.042;6.406;2023-02-28T11:39:07;5.90;1.00
54264;DHT22;40178;53.042;6.406;2023-02-28T11:44:58;5.80;99.90
54264;DHT22;40178;53.042;6.406;2023-02-28T11:53:50;5.80;99.90
54264;DHT22;40178;53.042;6.406;2023-02-28T11:56:32;6.00;1.00
54264;DHT22;40178;53.042;6.406;2023-02-28T12:10:29;6.10;1.00
54264;DHT22;40178;53.042;6.406;2023-02-28T12:13:31;6.00;99.90
54264;DHT22;40178;53.042;6.406;2023-02-28T12:18:50;6.10;99.90
54264;DHT22;40178;53.042;6.406;2023-02-28T12:24:16;6.20;1.00
54264;DHT22;40178;53.042;6.406;2023-02-28T12:26:49;6.20;1.00
54264;DHT22;40178;53.042;6.406;2023-02-28T12:29:21;6.00;99.90
54264;DHT22;40178;53.042;6.406;2023-02-28T12:34:55;5.70;1.00
54264;DHT22;40178;53.042;6.406;2023-02-28T12:37:29;5.60;1.00
54264;DHT22;40178;53.042;6.406;2023-02-28T12:40:03;5.60;1.00
54264;DHT22;40178;53.042;6.406;2023-02-28T12:42:38;5.60;1.00
54264;DHT22;40178;53.042;6.406;2023-02-28T12:45:08;5.60;1.00
54264;DHT22;40178;53.042;6.406;2023-02-28T12:47:38;5.60;1.00
54264;DHT22;40178;53.042;6.406;2023-02-28T12:50:07;5.70;1.00
54264;DHT22;40178;53.042;6.406;2023-02-28T13:07:29;6.00;1.00
54264;DHT22;40178;53.042;6.406;2023-02-28T13:09:29;6.10;99.90
54264;DHT22;40178;53.042;6.406;2023-02-28T13:11:55;6.20;1.00
54264;DHT22;40178;53.042;6.406;2023-02-28T13:19:35;6.40;1.00
54264;DHT22;40178;53.042;6.406;2023-02-28T13:22:02;6.40;99.90
54264;DHT22;40178;53.042;6.406;2023-02-28T13:24:50;6.30;99.90
54264;DHT22;40178;53.042;6.406;2023-02-28T13:33:46;6.20;99.90
54264;DHT22;40178;53.042;6.406;2023-02-28T13:36:27;6.10;99.90
54264;DHT22;40178;53.042;6.406;2023-02-28T13:39:01;6.00;99.90
54264;DHT22;40178;53.042;6.406;2023-02-28T13:41:40;6.00;99.90
54264;DHT22;40178;53.042;6.406;2023-02-28T13:49:28;6.00;99.90
54264;DHT22;40178;53.042;6.406;2023-02-28T13:57:58;6.20;99.90
54264;DHT22;40178;53.042;6.406;2023-02-28T14:05:36;6.30;99.90
54264;DHT22;40178;53.042;6.406;2023-02-28T14:08:15;6.40;99.90
54264;DHT22;40178;53.042;6.406;2023-02-28T14:11:04;6.30;99.90
54264;DHT22;40178;53.042;6.406;2023-02-28T14:13:45;6.40;99.90
54264;DHT22;40178;53.042;6.406;2023-02-28T14:16:19;6.40;99.90
54264;DHT22;40178;53.042;6.406;2023-02-28T14:18:59;6.30;99.90
54264;DHT22;40178;53.042;6.406;2023-02-28T14:21:34;6.30;99.90
54264;DHT22;40178;53.042;6.406;2023-02-28T14:26:46;6.00;99.90
54264;DHT22;40178;53.042;6.406;2023-02-28T14:32:28;5.90;99.90
54264;DHT22;40178;53.042;6.406;2023-02-28T14:38:12;5.80;99.90
54264;DHT22;40178;53.042;6.406;2023-02-28T14:40:40;5.80;99.90
54264;DHT22;40178;53.042;6.406;2023-02-28T14:43:19;5.80;99.90
54264;DHT22;40178;53.042;6.406;2023-02-28T14:45:53;5.80;1.00
54264;DHT22;40178;53.042;6.406;2023-02-28T14:48:21;5.90;99.90
54264;DHT22;40178;53.042;6.406;2023-02-28T14:50:58;5.90;99.90
54264;DHT22;40178;53.042;6.406;2023-02-28T14:53:29;5.90;99.90
54264;DHT22;40178;53.042;6.406;2023-02-28T14:55:55;5.90;99.90
54264;DHT22;40178;53.042;6.406;2023-02-28T14:58:31;5.90;99.90
54264;DHT22;40178;53.042;6.406;2023-02-28T15:01:03;6.00;99.90
54264;DHT22;40178;53.042;6.406;2023-02-28T15:03:33;6.00;99.90
54264;DHT22;40178;53.042;6.406;2023-02-28T15:06:01;6.00;99.90
54264;DHT22;40178;53.042;6.406;2023-02-28T15:08:27;5.90;99.90
54264;DHT22;40178;53.042;6.406;2023-02-28T15:11:00;6.00;99.90
54264;DHT22;40178;53.042;6.406;2023-02-28T15:13:39;6.00;99.90
54264;DHT22;40178;53.042;6.406;2023-02-28T15:16:10;6.00;99.90
54264;DHT22;40178;53.042;6.406;2023-02-28T15:21:24;6.00;99.90
54264;DHT22;40178;53.042;6.406;2023-02-28T15:23:58;6.00;99.90
54264;DHT22;40178;53.042;6.406;2023-02-28T15:26:32;5.90;99.90
54264;DHT22;40178;53.042;6.406;2023-02-28T15:29:01;5.90;99.90
54264;DHT22;40178;53.042;6.406;2023-02-28T15:31:39;5.80;99.90
54264;DHT22;40178;53.042;6.406;2023-02-28T15:34:13;5.80;99.90
54264;DHT22;40178;53.042;6.406;2023-02-28T15:36:40;5.70;99.90
54264;DHT22;40178;53.042;6.406;2023-02-28T15:39:27;5.70;99.90
54264;DHT22;40178;53.042;6.406;2023-02-28T15:42:18;5.70;99.90
54264;DHT22;40178;53.042;6.406;2023-02-28T15:44:44;5.70;99.90
54264;DHT22;40178;53.042;6.406;2023-02-28T15:47:24;5.70;99.90
54264;DHT22;40178;53.042;6.406;2023-02-28T15:52:34;5.80;12.00
54264;DHT22;40178;53.042;6.406;2023-02-28T15:57:44;5.80;99.90
54264;DHT22;40178;53.042;6.406;2023-02-28T16:00:14;5.80;99.90
54264;DHT22;40178;53.042;6.406;2023-02-28T16:02:40;5.70;99.90
54264;DHT22;40178;53.042;6.406;2023-02-28T16:07:40;5.70;99.90
54264;DHT22;40178;53.042;6.406;2023-02-28T16:10:07;5.60;1.00
54264;DHT22;40178;53.042;6.406;2023-02-28T16:12:35;5.50;99.90
54264;DHT22;40178;53.042;6.406;2023-02-28T16:15:05;5.40;99.90
54264;DHT22;40178;53.042;6.406;2023-02-28T16:17:34;5.40;99.90
54264;DHT22;40178;53.042;6.406;2023-02-28T16:20:00;5.30;1.00
54264;DHT22;40178;53.042;6.406;2023-02-28T16:22:26;5.20;1.00
54264;DHT22;40178;53.042;6.406;2023-02-28T16:24:52;5.10;1.00
54264;DHT22;40178;53.042;6.406;2023-02-28T16:27:28;5.00;1.00
54264;DHT22;40178;53.042;6.406;2023-02-28T16:29:55;4.90;1.00
54264;DHT22;40178;53.042;6.406;2023-02-28T16:32:21;4.80;1.00
54264;DHT22;40178;53.042;6.406;2023-02-28T16:34:46;4.70;1.00
54264;DHT22;40178;53.042;6.406;2023-02-28T16:37:15;4.70;1.00
54264;DHT22;40178;53.042;6.406;2023-02-28T16:39:42;4.60;1.00
54264;DHT22;40178;53.042;6.406;2023-02-28T16:42:28;4.50;1.00
54264;DHT22;40178;53.042;6.406;2023-02-28T16:44:56;4.40;1.00
54264;DHT22;40178;53.042;6.406;2023-02-28T16:47:23;4.30;1.00
54264;DHT22;40178;53.042;6.406;2023-02-28T16:49:49;4.30;1.00
54264;DHT22;40178;53.042;6.406;2023-02-28T16:52:15;4.20;1.00
54264;DHT22;40178;53.042;6.406;2023-02-28T16:54:41;4.20;1.00
54264;DHT22;40178;53.042;6.406;2023-02-28T16:57:20;4.10;1.00
54264;DHT22;40178;53.042;6.406;2023-02-28T16:59:47;4.20;1.00
54264;DHT22;40178;53.042;6.406;2023-02-28T17:02:15;4.20;1.00
54264;DHT22;40178;53.042;6.406;2023-02-28T17:04:42;4.20;1.00
54264;DHT22;40178;53.042;6.406;2023-02-28T17:07:13;4.20;1.00
54264;DHT22;40178;53.042;6.406;2023-02-28T17:09:39;4.10;1.00
54264;DHT22;40178;53.042;6.406;2023-02-28T17:12:06;4.10;99.90
54264;DHT22;40178;53.042;6.406;2023-02-28T17:14:31;4.10;1.00
54264;DHT22;40178;53.042;6.406;2023-02-28T17:16:57;4.00;1.00
54264;DHT22;40178;53.042;6.406;2023-02-28T17:19:23;3.80;1.00
54264;DHT22;40178;53.042;6.406;2023-02-28T17:21:48;3.70;10.00
54264;DHT22;40178;53.042;6.406;2023-02-28T17:24:14;3.40;27.30
54264;DHT22;40178;53.042;6.406;2023-02-28T17:26:41;3.20;34.30
54264;DHT22;40178;53.042;6.406;2023-02-28T17:29:15;3.00;44.20
54264;DHT22;40178;53.042;6.406;2023-02-28T17:31:41;2.90;46.80
54264;DHT22;40178;53.042;6.406;2023-02-28T17:34:07;2.80;49.60
54264;DHT22;40178;53.042;6.406;2023-02-28T17:36:33;2.80;46.50
54264;DHT22;40178;53.042;6.406;2023-02-28T17:39:00;2.80;46.70
54264;DHT22;40178;53.042;6.406;2023-02-28T17:41:26;2.80;45.20
54264;DHT22;40178;53.042;6.406;2023-02-28T17:43:52;2.80;46.70
54264;DHT22;40178;53.042;6.406;2023-02-28T17:46:20;2.60;51.10
54264;DHT22;40178;53.042;6.406;2023-02-28T17:48:53;2.50;53.90
54264;DHT22;40178;53.042;6.406;2023-02-28T17:51:20;2.40;56.10
54264;DHT22;40178;53.042;6.406;2023-02-28T17:53:46;2.40;57.20
54264;DHT22;40178;53.042;6.406;2023-02-28T17:56:20;2.40;57.60
54264;DHT22;40178;53.042;6.406;2023-02-28T17:58:47;2.20;64.20
54264;DHT22;40178;53.042;6.406;2023-02-28T18:01:12;2.10;65.80
54264;DHT22;40178;53.042;6.406;2023-02-28T18:03:38;2.10;70.00
54264;DHT22;40178;53.042;6.406;2023-02-28T18:06:05;2.10;70.20
54264;DHT22;40178;53.042;6.406;2023-02-28T18:08:31;2.00;72.10
54264;DHT22;40178;53.042;6.406;2023-02-28T18:10:58;2.00;72.60
54264;DHT22;40178;53.042;6.406;2023-02-28T18:13:24;2.00;72.00
54264;DHT22;40178;53.042;6.406;2023-02-28T18:15:50;2.00;72.90